Time;durP1;ratioP1;P1;durP2;ratioP2;P2;SDS_P1;SDS_P2;PMS_P1;PMS_P2;Temp;Humidity;BMP_temperature;BMP_pressure;BME280_temperature;BME280_humidity;BME280_pressure;Samples;Min_cycle;Max_cycle;Signal;HPM_P1;HPM_P2
2022/07/25 00:02:09;;;;;;;1.50;1.35;;;18.00;99.90;;;;;;5048608;28;20425;-59
2022/07/25 00:04:36;;;;;;;1.50;1.40;;;18.00;99.90;;;;;;5062465;28;20433;-59
2022/07/25 00:07:04;;;;;;;1.50;1.50;;;18.00;99.90;;;;;;5048464;28;20453;-59
2022/07/25 00:09:30;;;;;;;1.60;1.50;;;18.00;99.90;;;;;;5065028;28;20469;-59
2022/07/25 00:11:57;;;;;;;1.92;1.83;;;18.00;99.90;;;;;;5049413;28;20441;-60
2022/07/25 00:14:24;;;;;;;1.50;1.40;;;17.90;99.90;;;;;;5045159;28;20439;-59
2022/07/25 00:16:51;;;;;;;1.42;1.33;;;17.80;99.90;;;;;;5043869;28;20905;-59
2022/07/25 00:19:18;;;;;;;1.90;1.65;;;17.80;99.90;;;;;;5039048;28;20433;-59
2022/07/25 00:21:45;;;;;;;1.67;1.58;;;17.70;99.90;;;;;;5047322;28;21085;-59
2022/07/25 00:24:15;;;;;;;2.22;1.77;;;17.60;99.90;;;;;;5046517;28;20441;-59
2022/07/25 00:26:42;;;;;;;1.30;1.30;;;17.50;99.90;;;;;;5058063;28;20808;-59
2022/07/25 00:29:09;;;;;;;1.33;1.23;;;17.50;99.90;;;;;;5049019;28;20435;-59
2022/07/25 00:31:36;;;;;;;1.83;1.73;;;17.40;99.90;;;;;;5043405;28;20437;-59
2022/07/25 00:34:03;;;;;;;1.20;1.20;;;17.30;99.90;;;;;;5052544;28;20433;-59
2022/07/25 00:36:30;;;;;;;1.38;1.27;;;17.30;99.90;;;;;;5060844;28;20775;-59
2022/07/25 00:38:57;;;;;;;1.88;1.33;;;17.30;99.90;;;;;;5069151;28;20510;-59
2022/07/25 00:41:24;;;;;;;1.60;1.48;;;17.30;99.90;;;;;;5052891;28;20435;-59
2022/07/25 00:43:51;;;;;;;1.45;1.35;;;17.30;99.90;;;;;;5049328;28;20893;-60
2022/07/25 00:46:18;;;;;;;1.25;1.15;;;17.30;99.90;;;;;;5037119;28;20426;-59
2022/07/25 00:48:46;;;;;;;1.60;1.50;;;17.40;99.90;;;;;;5053026;28;20424;-59
2022/07/25 00:51:15;;;;;;;2.10;1.30;;;17.40;99.90;;;;;;5043862;28;20477;-59
2022/07/25 00:53:42;;;;;;;1.50;1.40;;;17.40;99.90;;;;;;5044975;28;20440;-59
2022/07/25 00:56:09;;;;;;;1.35;1.30;;;17.40;99.90;;;;;;5053694;28;20457;-59
2022/07/25 00:58:36;;;;;;;1.77;1.63;;;17.40;99.90;;;;;;5062629;28;20451;-59
2022/07/25 01:01:03;;;;;;;1.67;1.58;;;17.40;99.90;;;;;;5061326;28;20515;-59
2022/07/25 01:03:30;;;;;;;1.70;1.60;;;17.30;99.90;;;;;;5058041;28;20435;-59
2022/07/25 01:05:57;;;;;;;1.70;1.60;;;17.20;99.90;;;;;;5050642;28;20457;-59
2022/07/25 01:08:24;;;;;;;1.30;1.20;;;17.20;99.90;;;;;;5051160;28;20504;-59
2022/07/25 01:10:51;;;;;;;1.95;1.65;;;17.10;99.90;;;;;;5063856;28;20510;-60
2022/07/25 01:13:18;;;;;;;1.77;1.67;;;17.10;99.90;;;;;;5057185;28;20428;-60
2022/07/25 01:15:46;;;;;;;2.47;1.55;;;17.00;99.90;;;;;;5060224;28;20514;-59
2022/07/25 01:18:13;;;;;;;1.77;1.60;;;16.90;99.90;;;;;;5049322;28;20437;-58
2022/07/25 01:20:40;;;;;;;1.75;1.65;;;16.80;99.90;;;;;;5055948;28;20419;-59
2022/07/25 01:23:07;;;;;;;1.98;1.33;;;16.90;99.90;;;;;;5056759;28;20486;-59
2022/07/25 01:25:34;;;;;;;2.22;1.55;;;16.90;99.90;;;;;;5050399;28;20435;-59
2022/07/25 01:28:01;;;;;;;1.93;1.73;;;16.90;99.90;;;;;;5056970;28;20434;-59
2022/07/25 01:30:28;;;;;;;1.70;1.60;;;16.90;99.90;;;;;;5051615;28;20469;-59
2022/07/25 01:32:55;;;;;;;2.07;1.87;;;16.90;99.90;;;;;;5060666;28;20822;-59
2022/07/25 01:35:22;;;;;;;1.70;1.40;;;16.80;99.90;;;;;;5066079;28;20425;-59
2022/07/25 01:37:49;;;;;;;1.50;1.40;;;16.80;99.90;;;;;;5057397;28;20887;-59
2022/07/25 01:40:16;;;;;;;1.80;1.70;;;16.70;99.90;;;;;;5048427;28;20417;-59
2022/07/25 01:42:46;;;;;;;2.30;1.70;;;16.60;99.90;;;;;;5063960;28;20425;-59
2022/07/25 01:45:13;;;;;;;1.75;1.65;;;16.50;99.90;;;;;;5048905;28;20437;-59
2022/07/25 01:47:40;;;;;;;1.50;1.40;;;16.50;99.90;;;;;;5052145;28;20528;-59
2022/07/25 01:50:07;;;;;;;2.03;1.48;;;16.60;99.90;;;;;;5052703;28;20459;-59
2022/07/25 01:52:36;;;;;;;1.80;1.70;;;16.60;99.90;;;;;;5044004;28;20435;-59
2022/07/25 01:55:06;;;;;;;1.73;1.58;;;16.70;99.90;;;;;;5068554;28;20435;-58
2022/07/25 01:57:35;;;;;;;1.33;1.33;;;16.70;99.90;;;;;;5052443;28;20484;-59
2022/07/25 02:00:07;;;;;;;1.58;1.48;;;16.60;99.90;;;;;;5066319;28;20542;-59
2022/07/25 02:02:37;;;;;;;1.30;1.15;;;16.70;99.90;;;;;;5049559;28;20435;-59
2022/07/25 02:05:08;;;;;;;1.70;1.60;;;16.80;99.90;;;;;;5057877;28;20427;-59
2022/07/25 02:07:36;;;;;;;2.08;1.98;;;16.80;99.90;;;;;;5059382;28;20446;-59
2022/07/25 02:10:05;;;;;;;1.63;1.52;;;16.90;99.90;;;;;;5051517;28;20520;-59
2022/07/25 02:12:32;;;;;;;1.40;1.30;;;16.80;99.90;;;;;;5063071;28;20435;-59
2022/07/25 02:14:59;;;;;;;1.65;1.55;;;16.70;99.90;;;;;;5069687;28;20428;-59
2022/07/25 02:17:29;;;;;;;1.33;1.30;;;16.70;99.90;;;;;;5052141;28;20435;-59
2022/07/25 02:19:56;;;;;;;1.70;1.60;;;16.60;99.90;;;;;;5062233;28;20431;-59
2022/07/25 02:22:22;;;;;;;1.92;1.17;;;16.60;99.90;;;;;;5062240;28;20435;-59
2022/07/25 02:24:49;;;;;;;1.77;1.67;;;16.50;99.90;;;;;;5057414;28;20919;-59
2022/07/25 02:27:16;;;;;;;2.33;1.23;;;16.50;99.90;;;;;;5049154;28;20540;-59
2022/07/25 02:29:46;;;;;;;3.40;1.48;;;16.70;99.90;;;;;;5080797;28;20510;-59
2022/07/25 02:32:15;;;;;;;1.63;1.52;;;16.90;99.90;;;;;;5045825;28;20516;-59
2022/07/25 02:34:41;;;;;;;1.13;1.10;;;17.00;99.90;;;;;;5057385;28;21126;-59
2022/07/25 02:37:11;;;;;;;2.65;1.58;;;17.00;99.90;;;;;;5060372;28;20521;-59
2022/07/25 02:39:47;;;;;;;1.53;1.43;;;17.00;99.90;;;;;;5047813;28;20452;-59
2022/07/25 02:42:13;;;;;;;1.63;1.52;;;17.20;99.90;;;;;;5051314;28;20449;-59
2022/07/25 02:44:40;;;;;;;1.55;1.45;;;17.40;99.90;;;;;;5050296;28;20466;-59
2022/07/25 02:47:07;;;;;;;1.52;1.42;;;17.50;99.90;;;;;;5043488;28;20949;-59
2022/07/25 02:49:34;;;;;;;1.77;1.63;;;17.50;99.90;;;;;;5051542;28;20450;-59
2022/07/25 02:52:00;;;;;;;1.55;1.45;;;17.40;99.90;;;;;;5063756;28;20431;-59
2022/07/25 02:54:27;;;;;;;2.47;1.67;;;17.30;99.90;;;;;;5064841;28;20467;-59
2022/07/25 02:56:54;;;;;;;1.70;1.60;;;17.10;99.90;;;;;;5057422;28;20890;-59
2022/07/25 02:59:21;;;;;;;2.00;1.80;;;17.00;99.90;;;;;;5050392;28;20458;-58
2022/07/25 03:01:48;;;;;;;1.33;1.30;;;16.90;99.90;;;;;;5055789;28;20429;-59
2022/07/25 03:04:18;;;;;;;1.63;1.52;;;16.70;99.90;;;;;;5048737;28;20916;-59
2022/07/25 03:06:45;;;;;;;1.98;1.88;;;16.70;99.90;;;;;;5063091;28;20434;-59
2022/07/25 03:09:12;;;;;;;1.73;1.63;;;16.70;99.90;;;;;;5067599;28;20448;-59
2022/07/25 03:11:39;;;;;;;1.87;1.77;;;16.80;99.90;;;;;;5057538;28;20836;-59
2022/07/25 03:14:07;;;;;;;1.25;1.25;;;16.80;99.90;;;;;;5067051;28;20466;-60
2022/07/25 03:16:34;;;;;;;2.30;2.10;;;16.90;99.90;;;;;;5051133;28;20431;-59
2022/07/25 03:19:02;;;;;;;1.73;1.63;;;17.00;99.90;;;;;;5050234;28;20432;-59
2022/07/25 03:21:28;;;;;;;1.70;1.60;;;17.10;99.90;;;;;;5046997;28;20419;-58
2022/07/25 03:23:55;;;;;;;1.48;1.38;;;17.20;99.90;;;;;;5057338;28;20518;-58
2022/07/25 03:26:23;;;;;;;1.70;1.48;;;17.30;99.90;;;;;;5047283;28;20470;-58
2022/07/25 03:28:50;;;;;;;1.87;1.77;;;17.30;99.90;;;;;;5055283;28;20437;-58
2022/07/25 03:31:17;;;;;;;1.60;1.50;;;17.30;99.90;;;;;;5047710;28;20429;-58
2022/07/25 03:33:44;;;;;;;2.03;1.60;;;17.00;99.90;;;;;;5049502;28;20908;-58
2022/07/25 03:36:11;;;;;;;1.27;1.27;;;16.80;99.90;;;;;;5049996;28;20505;-59
2022/07/25 03:38:38;;;;;;;2.43;1.70;;;16.60;99.90;;;;;;5048771;28;20429;-58
2022/07/25 03:41:05;;;;;;;1.58;1.48;;;16.50;99.90;;;;;;5048114;28;20525;-59
2022/07/25 03:43:32;;;;;;;2.25;1.95;;;16.50;99.90;;;;;;5049183;28;20459;-58
2022/07/25 03:45:58;;;;;;;1.40;1.30;;;16.40;99.90;;;;;;5049516;28;20429;-58
2022/07/25 03:48:25;;;;;;;1.80;1.70;;;16.30;99.90;;;;;;5049621;28;20436;-58
2022/07/25 03:50:52;;;;;;;1.27;1.27;;;16.20;99.90;;;;;;5047535;28;20432;-58
2022/07/25 03:53:19;;;;;;;1.40;1.38;;;16.20;99.90;;;;;;5049013;28;20437;-58
2022/07/25 03:55:46;;;;;;;1.45;1.40;;;16.10;99.90;;;;;;5051808;28;20483;-58
2022/07/25 03:58:12;;;;;;;2.40;1.60;;;16.00;99.90;;;;;;5058134;28;20452;-58
2022/07/25 04:00:39;;;;;;;1.33;1.33;;;16.00;99.90;;;;;;5043711;28;20439;-58
2022/07/25 04:03:06;;;;;;;1.60;1.50;;;16.00;99.90;;;;;;5050836;28;20429;-58
2022/07/25 04:05:33;;;;;;;1.60;1.50;;;16.00;99.90;;;;;;5052952;28;20536;-58
2022/07/25 04:08:00;;;;;;;1.60;1.50;;;16.00;99.90;;;;;;5058254;28;20427;-58
2022/07/25 04:10:27;;;;;;;1.90;1.40;;;16.00;99.90;;;;;;5062567;28;20531;-58
2022/07/25 04:12:53;;;;;;;1.58;1.48;;;16.00;99.90;;;;;;5057860;28;20433;-58
2022/07/25 04:15:20;;;;;;;1.65;1.55;;;16.10;99.90;;;;;;5045720;28;20488;-58
2022/07/25 04:17:56;;;;;;;2.97;1.63;;;16.10;99.90;;;;;;5064900;28;20477;-58
2022/07/25 04:20:23;;;;;;;1.70;1.60;;;16.10;99.90;;;;;;5064623;28;20426;-58
2022/07/25 04:22:50;;;;;;;1.83;1.73;;;16.20;99.90;;;;;;5041024;28;20485;-58
2022/07/25 04:25:17;;;;;;;1.88;1.77;;;16.30;99.90;;;;;;5039729;28;20463;-58
2022/07/25 04:27:44;;;;;;;2.63;2.03;;;16.40;99.90;;;;;;5042356;28;21093;-58
2022/07/25 04:30:11;;;;;;;1.88;1.77;;;16.50;99.90;;;;;;5055020;28;20516;-60
2022/07/25 04:32:38;;;;;;;2.10;1.93;;;16.60;99.90;;;;;;5046217;28;20438;-58
2022/07/25 04:35:05;;;;;;;2.58;1.80;;;16.70;99.90;;;;;;5044732;28;20519;-58
2022/07/25 04:37:32;;;;;;;1.70;1.60;;;16.80;99.90;;;;;;5049023;28;20511;-58
2022/07/25 04:39:58;;;;;;;2.17;2.08;;;16.90;99.90;;;;;;5048868;28;20448;-58
2022/07/25 04:42:26;;;;;;;1.90;1.67;;;17.00;99.90;;;;;;5032327;28;20432;-58
2022/07/25 04:44:53;;;;;;;1.92;1.70;;;17.10;99.90;;;;;;5040968;28;20479;-58
2022/07/25 04:47:21;;;;;;;2.20;1.90;;;17.10;99.90;;;;;;5037315;28;21172;-58
2022/07/25 04:49:48;;;;;;;1.98;1.88;;;17.40;99.90;;;;;;5037106;28;21010;-58
2022/07/25 04:52:15;;;;;;;2.28;2.17;;;17.90;99.90;;;;;;5042598;28;20441;-58
2022/07/25 04:54:42;;;;;;;1.70;1.60;;;18.50;99.90;;;;;;5045480;28;20465;-58
2022/07/25 04:57:08;;;;;;;1.80;1.60;;;19.20;99.90;;;;;;5037768;28;20514;-59
2022/07/25 04:59:35;;;;;;;1.73;1.63;;;20.00;99.90;;;;;;5046111;28;20511;-57
2022/07/25 05:02:02;;;;;;;1.83;1.73;;;20.70;99.90;;;;;;5047029;28;20520;-57
2022/07/25 05:04:29;;;;;;;1.52;1.42;;;21.50;99.90;;;;;;5045834;28;20979;-57
2022/07/25 05:06:58;;;;;;;1.47;1.47;;;22.00;99.90;;;;;;5067190;28;20443;-59
2022/07/25 05:09:26;;;;;;;1.90;1.80;;;22.50;99.90;;;;;;5046154;28;20968;-58
2022/07/25 05:11:53;;;;;;;1.70;1.60;;;23.00;99.90;;;;;;5048977;28;20483;-57
2022/07/25 05:14:22;;;;;;;1.40;1.40;;;23.40;99.90;;;;;;5047361;28;20937;-57
2022/07/25 05:16:49;;;;;;;1.30;1.30;;;23.90;99.90;;;;;;5042449;28;20464;-57
2022/07/25 05:19:16;;;;;;;1.70;1.60;;;24.50;99.90;;;;;;5044120;28;20506;-57
2022/07/25 05:21:42;;;;;;;1.63;1.53;;;24.90;99.90;;;;;;5047409;28;20460;-57
2022/07/25 05:24:11;;;;;;;1.60;1.50;;;25.40;99.90;;;;;;5049211;28;20439;-58
2022/07/25 05:26:38;;;;;;;1.58;1.52;;;25.90;99.90;;;;;;5046552;28;20433;-58
2022/07/25 05:29:05;;;;;;;1.37;1.30;;;26.20;99.90;;;;;;5053310;28;20845;-57
2022/07/25 05:31:32;;;;;;;1.60;1.52;;;26.50;99.90;;;;;;5053641;28;20431;-57
2022/07/25 05:33:59;;;;;;;1.52;1.42;;;27.00;99.90;;;;;;5061587;28;20437;-57
2022/07/25 05:36:25;;;;;;;1.55;1.45;;;27.30;99.90;;;;;;5064722;28;20909;-57
2022/07/25 05:38:53;;;;;;;1.48;1.38;;;27.30;99.90;;;;;;5035812;28;20486;-57
2022/07/25 05:41:20;;;;;;;2.00;1.90;;;27.60;99.90;;;;;;5052613;28;20752;-57
2022/07/25 05:43:47;;;;;;;1.83;1.73;;;27.30;99.90;;;;;;5057342;28;20508;-57
2022/07/25 05:46:14;;;;;;;2.03;1.90;;;26.50;99.90;;;;;;5059711;28;20467;-57
2022/07/25 05:48:42;;;;;;;2.17;2.08;;;26.00;99.90;;;;;;5034227;28;20434;-57
2022/07/25 05:51:09;;;;;;;2.28;2.08;;;25.40;99.90;;;;;;5056629;28;20431;-57
2022/07/25 05:53:36;;;;;;;1.88;1.77;;;25.10;99.90;;;;;;5044447;28;20456;-57
2022/07/25 05:56:04;;;;;;;2.00;1.90;;;25.10;99.90;;;;;;5042600;28;20451;-57
2022/07/25 05:58:30;;;;;;;1.90;1.80;;;25.50;99.90;;;;;;5052247;28;20538;-57
2022/07/25 06:00:58;;;;;;;2.10;2.00;;;26.00;99.90;;;;;;5037455;28;20504;-57
2022/07/25 06:03:24;;;;;;;1.80;1.70;;;26.60;99.90;;;;;;5048921;28;20469;-57
2022/07/25 06:05:53;;;;;;;1.90;1.80;;;27.00;99.90;;;;;;5049941;28;20437;-57
2022/07/25 06:08:20;;;;;;;2.37;2.23;;;27.50;99.90;;;;;;5032162;28;21102;-57
2022/07/25 06:10:48;;;;;;;1.80;1.70;;;27.90;99.90;;;;;;5048457;28;20445;-57
2022/07/25 06:13:14;;;;;;;2.05;1.95;;;28.30;99.90;;;;;;5041811;28;20459;-57
2022/07/25 06:15:41;;;;;;;1.80;1.75;;;28.80;99.90;;;;;;5037398;28;20433;-57
2022/07/25 06:18:08;;;;;;;1.90;1.80;;;29.30;99.90;;;;;;5046440;28;20515;-57
2022/07/25 06:20:38;;;;;;;1.60;1.60;;;29.60;99.90;;;;;;5065983;28;20459;-57
2022/07/25 06:23:04;;;;;;;2.05;1.95;;;30.30;99.90;;;;;;5053377;28;20497;-57
2022/07/25 06:25:31;;;;;;;2.00;1.90;;;30.70;99.90;;;;;;5051782;28;20480;-57
2022/07/25 06:27:58;;;;;;;2.28;2.17;;;31.10;99.90;;;;;;5035083;28;20485;-57
2022/07/25 06:30:25;;;;;;;2.00;1.90;;;31.30;99.90;;;;;;5045830;28;20442;-57
2022/07/25 06:32:52;;;;;;;1.83;1.80;;;31.30;99.90;;;;;;5041135;28;20510;-57
2022/07/25 06:35:19;;;;;;;1.90;1.80;;;31.60;99.90;;;;;;5036879;28;20450;-57
2022/07/25 06:37:46;;;;;;;2.00;1.90;;;32.00;99.90;;;;;;5051833;28;20438;-57
2022/07/25 06:40:13;;;;;;;2.40;2.22;;;32.30;99.90;;;;;;5057794;28;20877;-58
2022/07/25 06:42:46;;;;;;;2.25;2.15;;;31.90;98.80;;;;;;5056583;28;20513;-57
2022/07/25 06:45:15;;;;;;;2.20;2.00;;;32.00;99.20;;;;;;5043618;28;20468;-58
2022/07/25 06:47:43;;;;;;;1.80;1.70;;;32.30;99.90;;;;;;5045109;28;20451;-57
2022/07/25 06:50:12;;;;;;;1.45;1.45;;;31.40;97.60;;;;;;5038509;28;20441;-57
2022/07/25 06:52:40;;;;;;;1.90;1.90;;;31.40;98.80;;;;;;5044565;28;20505;-58
2022/07/25 06:55:09;;;;;;;1.88;1.77;;;31.50;98.90;;;;;;5052997;28;20922;-58
2022/07/25 06:57:36;;;;;;;2.20;2.00;;;31.30;98.70;;;;;;5041839;28;20427;-58
2022/07/25 07:00:06;;;;;;;1.85;1.75;;;31.50;98.00;;;;;;5058379;28;20517;-58
2022/07/25 07:02:48;;;;;;;2.35;2.20;;;31.00;98.50;;;;;;5050086;28;20548;-58
2022/07/25 07:05:14;;;;;;;2.25;2.15;;;29.90;98.70;;;;;;5041365;28;20470;-59
2022/07/25 07:07:41;;;;;;;2.40;2.30;;;29.90;99.30;;;;;;5046371;28;20441;-58
2022/07/25 07:10:13;;;;;;;1.90;1.80;;;30.20;99.70;;;;;;5045535;28;20433;-58
2022/07/25 07:12:43;;;;;;;1.65;1.63;;;30.90;99.70;;;;;;5054258;28;20866;-58
2022/07/25 07:15:10;;;;;;;2.25;2.15;;;31.00;98.70;;;;;;5049012;28;20433;-58
2022/07/25 07:17:40;;;;;;;2.10;2.00;;;31.50;98.40;;;;;;5055137;28;21449;-58
2022/07/25 07:20:13;;;;;;;2.37;2.27;;;30.80;98.70;;;;;;5059604;28;20427;-58
2022/07/25 07:22:45;;;;;;;2.28;2.10;;;30.60;98.80;;;;;;5044475;28;20548;-58
2022/07/25 07:25:17;;;;;;;1.77;1.67;;;30.50;99.50;;;;;;5053248;28;20463;-57
2022/07/25 07:27:46;;;;;;;1.73;1.63;;;30.40;99.30;;;;;;5050807;28;20431;-58
2022/07/25 07:30:14;;;;;;;1.90;1.80;;;30.80;99.80;;;;;;5055983;28;20429;-57
2022/07/25 07:32:42;;;;;;;2.00;1.90;;;31.60;99.30;;;;;;5084681;28;20485;-58
2022/07/25 07:35:15;;;;;;;1.90;1.80;;;30.90;98.50;;;;;;5049485;28;20443;-57
2022/07/25 07:37:45;;;;;;;1.73;1.63;;;30.70;99.00;;;;;;5056874;28;20427;-57
2022/07/25 07:40:13;;;;;;;1.63;1.63;;;31.10;99.20;;;;;;5043487;28;21018;-57
2022/07/25 07:42:46;;;;;;;1.97;1.87;;;29.90;99.30;;;;;;5031827;28;20433;-57
2022/07/25 07:45:21;;;;;;;1.67;1.63;;;30.10;99.30;;;;;;5032291;28;20520;-58
2022/07/25 07:47:50;;;;;;;2.00;1.90;;;30.30;99.90;;;;;;5039983;28;20535;-57
2022/07/25 07:50:20;;;;;;;1.93;1.83;;;31.00;99.90;;;;;;5062719;28;21065;-58
2022/07/25 07:52:47;;;;;;;2.10;2.00;;;31.60;99.50;;;;;;5042455;28;20538;-60
2022/07/25 07:58:00;;;;;;;1.73;1.63;;;31.60;98.90;;;;;;5040435;28;20427;-59
2022/07/25 08:00:29;;;;;;;2.20;2.10;;;31.60;98.90;;;;;;5038088;28;20448;-58
2022/07/25 08:02:57;;;;;;;2.35;2.25;;;31.40;98.40;;;;;;5038471;28;20429;-58
2022/07/25 08:05:27;;;;;;;2.03;1.92;;;30.70;98.40;;;;;;5041570;28;20433;-57
2022/07/25 08:07:55;;;;;;;2.85;2.20;;;31.30;98.90;;;;;;5040885;28;20429;-57
2022/07/25 08:10:25;;;;;;;2.08;1.98;;;31.00;98.10;;;;;;5054424;28;20865;-57
2022/07/25 08:12:52;;;;;;;1.85;1.85;;;31.00;98.50;;;;;;5036914;28;21971;-58
2022/07/25 08:15:20;;;;;;;2.30;2.10;;;30.80;99.10;;;;;;5043377;28;20429;-58
2022/07/25 08:17:50;;;;;;;2.22;2.13;;;30.30;98.90;;;;;;5041631;28;20461;-57
2022/07/25 08:20:19;;;;;;;2.13;1.83;;;30.60;98.80;;;;;;5043737;28;20440;-57
2022/07/25 08:23:05;;;;;;;2.00;1.90;;;31.20;98.40;;;;;;5038608;28;20436;-57
2022/07/25 08:25:36;;;;;;;1.83;1.73;;;31.90;98.70;;;;;;5048656;28;20433;-57
2022/07/25 08:28:05;;;;;;;1.77;1.73;;;32.30;98.00;;;;;;5039288;28;20468;-57
2022/07/25 08:30:33;;;;;;;1.70;1.70;;;32.30;97.50;;;;;;5040335;28;20524;-58
2022/07/25 08:33:02;;;;;;;1.98;1.55;;;32.70;97.20;;;;;;5039107;28;20935;-58
2022/07/25 08:35:30;;;;;;;1.70;1.60;;;33.30;96.90;;;;;;5037908;28;20464;-58
2022/07/25 08:37:57;;;;;;;1.60;1.60;;;33.40;96.10;;;;;;5037858;28;20455;-57
2022/07/25 08:40:27;;;;;;;2.03;1.90;;;33.70;96.70;;;;;;5040560;28;20433;-58
2022/07/25 08:42:57;;;;;;;2.17;2.08;;;33.80;96.10;;;;;;5045252;28;20429;-60
2022/07/25 08:45:25;;;;;;;1.90;1.80;;;34.00;95.50;;;;;;5039692;28;20469;-59
2022/07/25 08:47:53;;;;;;;2.15;2.05;;;33.60;95.60;;;;;;5041070;28;20463;-60
2022/07/25 08:50:28;;;;;;;2.10;2.00;;;33.00;96.40;;;;;;5038542;28;20440;-60
2022/07/25 08:52:55;;;;;;;1.80;1.70;;;33.10;95.60;;;;;;5037718;28;21356;-59
2022/07/25 08:55:46;;;;;;;1.93;1.80;;;32.80;96.30;;;;;;5047896;28;20431;-62
2022/07/25 08:58:15;;;;;;;1.70;1.60;;;33.20;96.20;;;;;;5056157;28;20439;-59
2022/07/25 09:00:42;;;;;;;2.05;1.98;;;33.40;95.80;;;;;;5052265;28;20437;-59
2022/07/25 09:03:10;;;;;;;2.05;1.95;;;33.20;95.40;;;;;;5043919;28;20516;-59
2022/07/25 09:05:38;;;;;;;1.67;1.67;;;33.20;95.20;;;;;;5041546;28;21056;-59
2022/07/25 09:08:13;;;;;;;1.97;1.87;;;33.50;95.70;;;;;;5046209;28;20467;-60
2022/07/25 09:10:49;;;;;;;1.80;1.70;;;33.80;96.20;;;;;;5040201;28;20421;-60
2022/07/25 09:13:17;;;;;;;2.13;2.03;;;34.00;95.30;;;;;;5047537;28;20428;-60
2022/07/25 09:15:45;;;;;;;1.95;1.85;;;34.60;95.30;;;;;;5062549;28;20432;-59
2022/07/25 09:18:14;;;;;;;1.65;1.65;;;34.70;94.60;;;;;;5051552;28;20481;-59
2022/07/25 09:21:02;;;;;;;2.10;2.00;;;34.50;94.50;;;;;;5051651;28;20431;-59
2022/07/25 09:23:37;;;;;;;1.80;1.70;;;34.10;94.80;;;;;;5050862;28;20421;-60
2022/07/25 09:26:05;;;;;;;1.83;1.73;;;35.00;94.80;;;;;;5045713;28;20815;-59
2022/07/25 09:28:43;;;;;;;1.90;1.80;;;35.10;94.40;;;;;;5053350;28;20428;-60
2022/07/25 09:31:11;;;;;;;2.00;1.90;;;35.40;94.30;;;;;;5044672;28;20433;-60
2022/07/25 09:33:59;;;;;;;2.10;1.75;;;35.40;93.60;;;;;;5058162;28;20472;-59
2022/07/25 09:36:26;;;;;;;1.92;1.83;;;35.00;94.40;;;;;;5049973;28;20768;-59
2022/07/25 09:38:59;;;;;;;1.83;1.73;;;35.40;94.30;;;;;;5040824;28;20453;-60
2022/07/25 09:41:40;;;;;;;1.90;1.80;;;35.40;94.20;;;;;;5044622;28;20438;-60
2022/07/25 09:44:21;;;;;;;1.80;1.70;;;35.50;93.80;;;;;;5050661;28;20982;-60
2022/07/25 09:46:49;;;;;;;2.10;2.00;;;34.90;93.90;;;;;;5049253;28;20427;-60
2022/07/25 09:49:19;;;;;;;1.90;1.80;;;35.70;94.50;;;;;;5067103;28;20433;-59
2022/07/25 09:51:46;;;;;;;1.80;1.70;;;35.60;93.20;;;;;;5045819;28;20792;-60
2022/07/25 09:54:14;;;;;;;2.42;2.22;;;34.80;93.00;;;;;;5055451;28;20464;-62
2022/07/25 09:56:43;;;;;;;1.83;1.73;;;34.60;93.80;;;;;;5039180;28;20512;-59
2022/07/25 09:59:10;;;;;;;1.73;1.63;;;34.00;94.10;;;;;;5039481;28;20483;-59
2022/07/25 10:01:47;;;;;;;1.83;1.73;;;33.50;95.00;;;;;;5047730;28;20996;-59
2022/07/25 10:04:20;;;;;;;1.92;1.83;;;33.40;94.90;;;;;;5055138;28;20490;-59
2022/07/25 10:07:03;;;;;;;1.85;1.75;;;34.00;94.80;;;;;;5061445;28;20519;-59
2022/07/25 10:09:31;;;;;;;1.95;1.80;;;34.30;93.70;;;;;;5054803;28;20497;-59
2022/07/25 10:12:08;;;;;;;1.60;1.60;;;34.70;93.90;;;;;;5048894;28;20545;-59
2022/07/25 10:14:35;;;;;;;1.57;1.57;;;35.00;93.70;;;;;;5038852;28;20437;-60
2022/07/25 10:17:03;;;;;;;1.70;1.65;;;35.70;93.70;;;;;;5043681;28;20452;-59
2022/07/25 10:19:47;;;;;;;1.85;1.75;;;35.90;93.10;;;;;;5042584;28;20912;-60
2022/07/25 10:22:20;;;;;;;1.95;1.85;;;36.30;92.40;;;;;;5045643;28;20589;-59
2022/07/25 10:25:11;;;;;;;1.50;1.50;;;36.10;92.00;;;;;;5041721;28;20417;-59
2022/07/25 10:27:43;;;;;;;1.80;1.70;;;36.20;92.00;;;;;;5040778;28;20429;-59
2022/07/25 10:30:19;;;;;;;1.63;1.52;;;36.20;93.20;;;;;;5050523;28;20460;-60
2022/07/25 10:32:57;;;;;;;1.90;1.80;;;36.80;92.30;;;;;;5042552;28;20439;-59
2022/07/25 10:35:25;;;;;;;1.90;1.90;;;37.30;91.80;;;;;;5049273;28;20433;-60
2022/07/25 10:37:54;;;;;;;1.85;1.75;;;37.20;91.10;;;;;;5047310;28;20766;-60
2022/07/25 10:40:38;;;;;;;1.92;1.73;;;37.50;91.50;;;;;;5050796;28;20928;-60
2022/07/25 10:43:17;;;;;;;1.67;1.63;;;38.00;90.40;;;;;;5051700;28;20779;-59
2022/07/25 10:45:53;;;;;;;1.80;1.80;;;37.60;90.40;;;;;;5046141;28;20440;-60
2022/07/25 10:48:30;;;;;;;1.63;1.52;;;37.90;90.50;;;;;;5050419;28;20532;-60
2022/07/25 10:51:07;;;;;;;1.85;1.83;;;37.40;91.00;;;;;;5048035;28;20434;-59
2022/07/25 10:53:37;;;;;;;1.77;1.77;;;37.00;90.40;;;;;;5028773;28;20452;-59
2022/07/25 10:56:06;;;;;;;1.35;1.35;;;36.80;91.10;;;;;;5045782;28;20452;-60
2022/07/25 10:58:59;;;;;;;1.55;1.55;;;37.10;90.80;;;;;;5046603;28;20432;-59
2022/07/25 11:01:32;;;;;;;1.80;1.70;;;37.60;90.60;;;;;;5058699;28;20443;-60
2022/07/25 11:04:03;;;;;;;1.75;1.75;;;37.60;89.80;;;;;;5043794;28;20807;-60
2022/07/25 11:06:34;;;;;;;1.67;1.67;;;37.40;90.20;;;;;;5054146;28;20463;-60
2022/07/25 11:09:03;;;;;;;2.10;2.00;;;37.50;91.00;;;;;;5047966;28;20433;-59
2022/07/25 11:11:35;;;;;;;1.60;1.60;;;37.00;90.20;;;;;;5047332;28;20524;-59
2022/07/25 11:14:04;;;;;;;1.50;1.50;;;36.70;90.60;;;;;;5045352;28;20798;-60
2022/07/25 11:16:31;;;;;;;1.60;1.60;;;37.40;90.80;;;;;;5060671;28;20423;-59
2022/07/25 11:18:58;;;;;;;1.77;1.67;;;37.50;90.90;;;;;;5054970;28;20462;-59
2022/07/25 11:21:25;;;;;;;1.20;1.20;;;36.50;88.60;;;;;;5058723;28;20439;-60
2022/07/25 11:23:51;;;;;;;1.10;1.10;;;36.80;88.70;;;;;;5031983;28;20778;-60
2022/07/25 11:26:18;;;;;;;1.00;1.00;;;37.20;86.90;;;;;;5046797;28;20508;-59
2022/07/25 11:28:48;;;;;;;1.00;1.00;;;37.30;87.20;;;;;;5053305;28;20455;-60
2022/07/25 11:31:16;;;;;;;1.13;1.13;;;37.40;84.70;;;;;;5044755;28;20429;-59
2022/07/25 11:33:46;;;;;;;1.30;1.30;;;37.30;85.60;;;;;;5070193;28;20438;-60
2022/07/25 11:36:13;;;;;;;0.98;0.98;;;37.50;84.70;;;;;;5053401;28;20441;-60
2022/07/25 11:38:41;;;;;;;1.10;1.00;;;37.90;86.10;;;;;;5068484;28;20840;-60
2022/07/25 11:41:10;;;;;;;1.13;1.13;;;37.80;84.20;;;;;;5052109;28;20477;-60
2022/07/25 11:43:47;;;;;;;1.00;1.00;;;36.80;85.70;;;;;;5055647;28;20526;-60
2022/07/25 11:46:14;;;;;;;1.05;1.05;;;36.40;86.10;;;;;;5057629;28;20519;-60
2022/07/25 11:48:41;;;;;;;0.88;0.88;;;36.00;85.60;;;;;;5043696;28;20495;-60
2022/07/25 11:51:17;;;;;;;0.90;0.90;;;35.70;85.30;;;;;;5058244;28;20438;-59
2022/07/25 11:53:48;;;;;;;0.93;0.93;;;35.60;84.90;;;;;;5047052;28;20452;-59
2022/07/25 11:56:23;;;;;;;1.10;1.10;;;35.80;85.80;;;;;;5036369;28;20429;-60
2022/07/25 11:59:10;;;;;;;1.08;0.98;;;36.00;84.90;;;;;;5047341;28;20421;-60
2022/07/25 12:01:40;;;;;;;0.90;0.90;;;36.10;85.30;;;;;;5029606;28;20441;-59
2022/07/25 12:04:18;;;;;;;0.93;0.93;;;36.00;86.10;;;;;;5038876;28;20450;-59
2022/07/25 12:06:49;;;;;;;1.05;1.05;;;36.30;87.00;;;;;;5043143;28;20814;-60
2022/07/25 12:09:18;;;;;;;0.98;0.98;;;36.80;85.50;;;;;;5040665;28;20741;-60
2022/07/25 12:11:47;;;;;;;1.13;1.13;;;37.20;85.90;;;;;;5063353;28;20427;-60
2022/07/25 12:14:17;;;;;;;1.30;1.20;;;37.70;85.90;;;;;;5039264;28;20439;-60
2022/07/25 12:16:43;;;;;;;1.02;1.02;;;38.50;83.30;;;;;;5055074;28;20576;-61
2022/07/25 12:19:21;;;;;;;1.02;1.02;;;38.70;82.60;;;;;;5048592;28;20555;-60
2022/07/25 12:21:47;;;;;;;1.20;1.20;;;38.70;84.20;;;;;;5036199;28;20963;-60
2022/07/25 12:24:14;;;;;;;1.10;1.10;;;38.80;81.90;;;;;;5054303;28;20923;-60
2022/07/25 12:26:41;;;;;;;1.00;1.00;;;38.60;80.90;;;;;;5055837;28;20523;-60
2022/07/25 12:29:11;;;;;;;1.25;1.20;;;38.10;83.00;;;;;;5051580;28;20428;-60
2022/07/25 12:31:40;;;;;;;1.30;1.30;;;37.50;83.50;;;;;;5032940;28;20919;-63
2022/07/25 12:34:06;;;;;;;1.00;1.00;;;36.90;83.00;;;;;;5043322;28;20469;-59
2022/07/25 12:36:39;;;;;;;1.10;1.10;;;36.20;83.10;;;;;;5038934;28;20806;-60
2022/07/25 12:39:06;;;;;;;1.25;1.15;;;36.50;85.10;;;;;;5059141;28;20554;-59
2022/07/25 12:41:34;;;;;;;1.02;1.02;;;36.50;84.20;;;;;;5043912;28;20460;-60
2022/07/25 12:44:04;;;;;;;1.05;1.05;;;36.80;85.70;;;;;;5046257;28;20772;-59
2022/07/25 12:46:31;;;;;;;1.10;1.10;;;36.60;84.90;;;;;;5047484;28;20429;-59
2022/07/25 12:48:57;;;;;;;1.05;1.05;;;36.10;84.50;;;;;;5045422;28;20429;-59
2022/07/25 12:51:24;;;;;;;1.10;1.10;;;35.10;86.10;;;;;;5046047;28;20429;-59
2022/07/25 12:53:53;;;;;;;1.02;1.00;;;34.90;87.10;;;;;;5049836;28;20461;-60
2022/07/25 12:56:19;;;;;;;1.20;1.20;;;34.80;86.20;;;;;;5054855;28;20439;-60
2022/07/25 12:58:49;;;;;;;1.10;1.10;;;34.80;87.90;;;;;;5056825;28;20503;-62
2022/07/25 13:01:18;;;;;;;0.90;0.90;;;35.00;86.60;;;;;;5039511;28;20439;-59